sensor_id;sensor_type;location;lat;lon;timestamp;P1;durP1;ratioP1;P2;durP2;ratioP2
44854;SDS011;30591;48.228;16.398;2023-01-30T00:01:05;32.20;;;15.07;;
44854;SDS011;30591;48.228;16.398;2023-01-30T00:03:38;33.67;;;14.80;;
44854;SDS011;30591;48.228;16.398;2023-01-30T00:06:05;30.67;;;14.03;;
44854;SDS011;30591;48.228;16.398;2023-01-30T00:08:33;27.17;;;13.73;;
44854;SDS011;30591;48.228;16.398;2023-01-30T00:11:07;28.83;;;13.40;;
44854;SDS011;30591;48.228;16.398;2023-01-30T00:13:37;25.70;;;13.37;;
44854;SDS011;30591;48.228;16.398;2023-01-30T00:16:05;27.40;;;12.80;;
44854;SDS011;30591;48.228;16.398;2023-01-30T00:18:35;25.53;;;12.80;;
44854;SDS011;30591;48.228;16.398;2023-01-30T00:21:05;26.20;;;13.70;;
44854;SDS011;30591;48.228;16.398;2023-01-30T00:23:34;26.97;;;12.77;;
44854;SDS011;30591;48.228;16.398;2023-01-30T00:26:03;26.80;;;13.50;;
44854;SDS011;30591;48.228;16.398;2023-01-30T00:28:31;26.73;;;13.07;;
44854;SDS011;30591;48.228;16.398;2023-01-30T00:30:58;26.53;;;13.20;;
44854;SDS011;30591;48.228;16.398;2023-01-30T00:33:26;30.60;;;14.60;;
44854;SDS011;30591;48.228;16.398;2023-01-30T00:35:54;30.47;;;15.27;;
44854;SDS011;30591;48.228;16.398;2023-01-30T00:38:23;29.40;;;14.50;;
44854;SDS011;30591;48.228;16.398;2023-01-30T00:40:51;30.27;;;13.87;;
44854;SDS011;30591;48.228;16.398;2023-01-30T00:43:19;27.57;;;14.30;;
44854;SDS011;30591;48.228;16.398;2023-01-30T00:46:14;29.10;;;14.20;;
44854;SDS011;30591;48.228;16.398;2023-01-30T00:49:04;28.23;;;14.37;;
44854;SDS011;30591;48.228;16.398;2023-01-30T00:51:33;26.40;;;14.27;;
44854;SDS011;30591;48.228;16.398;2023-01-30T00:54:00;27.20;;;14.83;;
44854;SDS011;30591;48.228;16.398;2023-01-30T00:56:29;29.47;;;15.77;;
44854;SDS011;30591;48.228;16.398;2023-01-30T00:58:57;29.97;;;15.67;;
44854;SDS011;30591;48.228;16.398;2023-01-30T01:01:24;28.73;;;14.77;;
44854;SDS011;30591;48.228;16.398;2023-01-30T01:03:51;30.37;;;14.30;;
44854;SDS011;30591;48.228;16.398;2023-01-30T01:06:19;29.97;;;15.93;;
44854;SDS011;30591;48.228;16.398;2023-01-30T01:08:46;29.73;;;15.33;;
44854;SDS011;30591;48.228;16.398;2023-01-30T01:11:13;26.20;;;14.13;;
44854;SDS011;30591;48.228;16.398;2023-01-30T01:13:51;26.93;;;14.73;;
44854;SDS011;30591;48.228;16.398;2023-01-30T01:16:19;30.50;;;14.10;;
44854;SDS011;30591;48.228;16.398;2023-01-30T01:18:47;30.97;;;15.30;;
44854;SDS011;30591;48.228;16.398;2023-01-30T01:21:14;27.70;;;14.43;;
44854;SDS011;30591;48.228;16.398;2023-01-30T01:24:03;27.70;;;14.77;;
44854;SDS011;30591;48.228;16.398;2023-01-30T01:26:32;28.27;;;14.53;;
44854;SDS011;30591;48.228;16.398;2023-01-30T01:28:59;27.23;;;14.23;;
44854;SDS011;30591;48.228;16.398;2023-01-30T01:31:28;26.37;;;14.27;;
44854;SDS011;30591;48.228;16.398;2023-01-30T01:33:55;29.30;;;14.63;;
44854;SDS011;30591;48.228;16.398;2023-01-30T01:36:24;26.83;;;14.17;;
44854;SDS011;30591;48.228;16.398;2023-01-30T01:39:11;29.07;;;13.87;;
44854;SDS011;30591;48.228;16.398;2023-01-30T01:41:39;30.33;;;14.97;;
44854;SDS011;30591;48.228;16.398;2023-01-30T01:44:07;29.50;;;14.80;;
44854;SDS011;30591;48.228;16.398;2023-01-30T01:49:07;28.87;;;15.33;;
44854;SDS011;30591;48.228;16.398;2023-01-30T01:54:22;30.33;;;15.93;;
44854;SDS011;30591;48.228;16.398;2023-01-30T01:57:05;30.50;;;14.87;;
44854;SDS011;30591;48.228;16.398;2023-01-30T01:59:45;32.60;;;16.43;;
44854;SDS011;30591;48.228;16.398;2023-01-30T02:02:18;28.50;;;14.33;;
44854;SDS011;30591;48.228;16.398;2023-01-30T02:04:50;30.80;;;14.73;;
44854;SDS011;30591;48.228;16.398;2023-01-30T02:07:31;32.67;;;16.07;;
44854;SDS011;30591;48.228;16.398;2023-01-30T02:10:26;29.40;;;14.93;;
44854;SDS011;30591;48.228;16.398;2023-01-30T02:13:14;29.03;;;14.40;;
44854;SDS011;30591;48.228;16.398;2023-01-30T02:15:42;25.97;;;14.17;;
44854;SDS011;30591;48.228;16.398;2023-01-30T02:18:10;30.77;;;15.70;;
44854;SDS011;30591;48.228;16.398;2023-01-30T02:34:19;31.80;;;15.00;;
44854;SDS011;30591;48.228;16.398;2023-01-30T02:37:13;25.13;;;14.27;;
44854;SDS011;30591;48.228;16.398;2023-01-30T02:42:50;30.57;;;15.17;;
44854;SDS011;30591;48.228;16.398;2023-01-30T02:48:01;29.17;;;14.90;;
44854;SDS011;30591;48.228;16.398;2023-01-30T02:50:37;27.27;;;14.40;;
44854;SDS011;30591;48.228;16.398;2023-01-30T02:53:08;31.37;;;14.43;;
44854;SDS011;30591;48.228;16.398;2023-01-30T02:55:38;30.67;;;14.27;;
44854;SDS011;30591;48.228;16.398;2023-01-30T02:58:07;31.10;;;14.80;;
44854;SDS011;30591;48.228;16.398;2023-01-30T03:12:17;32.40;;;14.77;;
44854;SDS011;30591;48.228;16.398;2023-01-30T03:17:44;37.13;;;17.40;;
44854;SDS011;30591;48.228;16.398;2023-01-30T03:20:15;32.63;;;16.07;;
44854;SDS011;30591;48.228;16.398;2023-01-30T03:22:45;32.53;;;15.30;;
44854;SDS011;30591;48.228;16.398;2023-01-30T03:25:14;31.30;;;15.57;;
44854;SDS011;30591;48.228;16.398;2023-01-30T03:27:47;37.73;;;16.43;;
44854;SDS011;30591;48.228;16.398;2023-01-30T03:30:18;32.77;;;15.37;;
44854;SDS011;30591;48.228;16.398;2023-01-30T03:32:47;34.57;;;16.03;;
44854;SDS011;30591;48.228;16.398;2023-01-30T03:35:14;32.00;;;15.97;;
44854;SDS011;30591;48.228;16.398;2023-01-30T03:37:44;33.00;;;15.50;;
44854;SDS011;30591;48.228;16.398;2023-01-30T03:40:12;30.70;;;15.47;;
44854;SDS011;30591;48.228;16.398;2023-01-30T03:42:44;36.77;;;15.40;;
44854;SDS011;30591;48.228;16.398;2023-01-30T03:45:12;31.17;;;15.07;;
44854;SDS011;30591;48.228;16.398;2023-01-30T03:47:46;30.73;;;14.53;;
44854;SDS011;30591;48.228;16.398;2023-01-30T03:50:15;31.20;;;14.50;;
44854;SDS011;30591;48.228;16.398;2023-01-30T03:52:44;30.07;;;14.63;;
44854;SDS011;30591;48.228;16.398;2023-01-30T03:55:15;33.07;;;14.57;;
44854;SDS011;30591;48.228;16.398;2023-01-30T03:57:43;30.03;;;13.50;;
44854;SDS011;30591;48.228;16.398;2023-01-30T04:00:10;28.10;;;12.60;;
44854;SDS011;30591;48.228;16.398;2023-01-30T04:02:48;28.30;;;14.73;;
44854;SDS011;30591;48.228;16.398;2023-01-30T04:05:17;27.30;;;13.70;;
44854;SDS011;30591;48.228;16.398;2023-01-30T04:07:55;29.67;;;12.27;;
44854;SDS011;30591;48.228;16.398;2023-01-30T04:10:23;28.93;;;13.73;;
44854;SDS011;30591;48.228;16.398;2023-01-30T04:12:52;26.77;;;14.03;;
44854;SDS011;30591;48.228;16.398;2023-01-30T04:15:20;29.27;;;14.17;;
44854;SDS011;30591;48.228;16.398;2023-01-30T04:18:06;27.33;;;13.90;;
44854;SDS011;30591;48.228;16.398;2023-01-30T04:21:03;27.43;;;14.40;;
44854;SDS011;30591;48.228;16.398;2023-01-30T04:23:36;25.70;;;14.27;;
44854;SDS011;30591;48.228;16.398;2023-01-30T04:26:04;27.80;;;14.17;;
44854;SDS011;30591;48.228;16.398;2023-01-30T04:28:36;26.20;;;14.43;;
44854;SDS011;30591;48.228;16.398;2023-01-30T04:31:05;28.63;;;14.43;;
44854;SDS011;30591;48.228;16.398;2023-01-30T04:33:55;28.73;;;14.97;;
44854;SDS011;30591;48.228;16.398;2023-01-30T04:36:23;27.13;;;13.93;;
44854;SDS011;30591;48.228;16.398;2023-01-30T04:38:50;25.00;;;13.97;;
44854;SDS011;30591;48.228;16.398;2023-01-30T04:41:19;24.27;;;13.50;;
44854;SDS011;30591;48.228;16.398;2023-01-30T04:43:47;29.60;;;14.73;;
44854;SDS011;30591;48.228;16.398;2023-01-30T04:46:33;22.47;;;13.10;;
44854;SDS011;30591;48.228;16.398;2023-01-30T04:49:01;25.50;;;13.73;;
44854;SDS011;30591;48.228;16.398;2023-01-30T04:51:28;26.33;;;13.00;;
44854;SDS011;30591;48.228;16.398;2023-01-30T04:53:57;27.13;;;14.73;;
44854;SDS011;30591;48.228;16.398;2023-01-30T04:56:25;26.77;;;13.17;;
44854;SDS011;30591;48.228;16.398;2023-01-30T04:58:52;29.83;;;14.17;;
44854;SDS011;30591;48.228;16.398;2023-01-30T05:01:23;25.20;;;13.83;;
44854;SDS011;30591;48.228;16.398;2023-01-30T05:03:55;25.87;;;14.17;;
44854;SDS011;30591;48.228;16.398;2023-01-30T05:06:23;26.37;;;14.37;;
44854;SDS011;30591;48.228;16.398;2023-01-30T05:08:50;27.73;;;14.43;;
44854;SDS011;30591;48.228;16.398;2023-01-30T05:11:20;27.77;;;14.33;;
44854;SDS011;30591;48.228;16.398;2023-01-30T05:13:49;31.13;;;14.70;;
44854;SDS011;30591;48.228;16.398;2023-01-30T05:16:18;28.53;;;14.53;;
44854;SDS011;30591;48.228;16.398;2023-01-30T05:18:46;28.77;;;13.67;;
44854;SDS011;30591;48.228;16.398;2023-01-30T05:21:21;25.23;;;13.97;;
44854;SDS011;30591;48.228;16.398;2023-01-30T05:23:54;28.83;;;15.23;;
44854;SDS011;30591;48.228;16.398;2023-01-30T05:26:23;26.13;;;14.73;;
44854;SDS011;30591;48.228;16.398;2023-01-30T05:28:51;27.17;;;14.60;;
44854;SDS011;30591;48.228;16.398;2023-01-30T05:31:23;28.57;;;14.27;;
44854;SDS011;30591;48.228;16.398;2023-01-30T05:33:51;28.63;;;15.03;;
44854;SDS011;30591;48.228;16.398;2023-01-30T05:36:19;27.47;;;14.80;;
44854;SDS011;30591;48.228;16.398;2023-01-30T05:38:48;27.43;;;14.63;;
44854;SDS011;30591;48.228;16.398;2023-01-30T05:41:15;28.13;;;14.37;;
44854;SDS011;30591;48.228;16.398;2023-01-30T05:43:47;31.03;;;15.53;;
44854;SDS011;30591;48.228;16.398;2023-01-30T05:46:15;29.50;;;15.50;;
44854;SDS011;30591;48.228;16.398;2023-01-30T05:48:43;29.80;;;15.23;;
44854;SDS011;30591;48.228;16.398;2023-01-30T05:51:14;28.33;;;14.33;;
44854;SDS011;30591;48.228;16.398;2023-01-30T05:53:47;27.23;;;14.57;;
44854;SDS011;30591;48.228;16.398;2023-01-30T05:56:14;26.90;;;14.27;;
44854;SDS011;30591;48.228;16.398;2023-01-30T05:58:42;27.80;;;14.93;;
44854;SDS011;30591;48.228;16.398;2023-01-30T06:01:16;30.23;;;15.20;;
44854;SDS011;30591;48.228;16.398;2023-01-30T06:03:45;27.33;;;14.57;;
44854;SDS011;30591;48.228;16.398;2023-01-30T06:06:12;28.97;;;14.77;;
44854;SDS011;30591;48.228;16.398;2023-01-30T06:08:39;25.57;;;14.27;;
44854;SDS011;30591;48.228;16.398;2023-01-30T06:11:09;28.37;;;16.03;;
44854;SDS011;30591;48.228;16.398;2023-01-30T06:13:38;24.70;;;14.30;;
44854;SDS011;30591;48.228;16.398;2023-01-30T06:16:05;27.93;;;14.50;;
44854;SDS011;30591;48.228;16.398;2023-01-30T06:18:34;30.13;;;15.47;;
44854;SDS011;30591;48.228;16.398;2023-01-30T06:21:01;29.87;;;14.90;;
44854;SDS011;30591;48.228;16.398;2023-01-30T06:23:29;28.10;;;14.77;;
44854;SDS011;30591;48.228;16.398;2023-01-30T06:25:58;28.90;;;15.13;;
44854;SDS011;30591;48.228;16.398;2023-01-30T06:28:28;31.17;;;15.80;;
44854;SDS011;30591;48.228;16.398;2023-01-30T06:30:56;27.87;;;14.23;;
44854;SDS011;30591;48.228;16.398;2023-01-30T06:33:24;29.37;;;15.40;;
44854;SDS011;30591;48.228;16.398;2023-01-30T06:35:51;27.07;;;14.93;;
44854;SDS011;30591;48.228;16.398;2023-01-30T06:38:19;28.07;;;16.00;;
44854;SDS011;30591;48.228;16.398;2023-01-30T06:40:48;29.90;;;16.23;;
44854;SDS011;30591;48.228;16.398;2023-01-30T06:43:15;30.00;;;15.77;;
44854;SDS011;30591;48.228;16.398;2023-01-30T06:45:43;28.90;;;15.63;;
44854;SDS011;30591;48.228;16.398;2023-01-30T06:48:10;30.33;;;15.43;;
44854;SDS011;30591;48.228;16.398;2023-01-30T06:50:38;25.83;;;13.93;;
44854;SDS011;30591;48.228;16.398;2023-01-30T06:53:06;29.10;;;15.77;;
44854;SDS011;30591;48.228;16.398;2023-01-30T06:55:34;26.67;;;14.10;;
44854;SDS011;30591;48.228;16.398;2023-01-30T06:58:05;23.40;;;12.60;;
44854;SDS011;30591;48.228;16.398;2023-01-30T07:00:35;23.10;;;13.27;;
44854;SDS011;30591;48.228;16.398;2023-01-30T07:03:12;27.50;;;14.43;;
44854;SDS011;30591;48.228;16.398;2023-01-30T07:05:41;25.77;;;14.23;;
44854;SDS011;30591;48.228;16.398;2023-01-30T07:08:10;25.50;;;13.30;;
44854;SDS011;30591;48.228;16.398;2023-01-30T07:10:39;28.43;;;14.07;;
44854;SDS011;30591;48.228;16.398;2023-01-30T07:13:07;27.73;;;14.17;;
44854;SDS011;30591;48.228;16.398;2023-01-30T07:15:35;31.83;;;15.10;;
44854;SDS011;30591;48.228;16.398;2023-01-30T07:18:02;28.77;;;14.40;;
44854;SDS011;30591;48.228;16.398;2023-01-30T07:20:29;26.13;;;13.77;;
44854;SDS011;30591;48.228;16.398;2023-01-30T07:22:57;27.67;;;14.60;;
44854;SDS011;30591;48.228;16.398;2023-01-30T07:25:25;24.17;;;13.97;;
44854;SDS011;30591;48.228;16.398;2023-01-30T07:27:54;27.30;;;14.97;;
44854;SDS011;30591;48.228;16.398;2023-01-30T07:30:24;29.23;;;14.90;;
44854;SDS011;30591;48.228;16.398;2023-01-30T07:32:54;27.83;;;14.67;;
44854;SDS011;30591;48.228;16.398;2023-01-30T07:35:24;27.97;;;14.40;;
44854;SDS011;30591;48.228;16.398;2023-01-30T07:37:53;24.47;;;13.13;;
44854;SDS011;30591;48.228;16.398;2023-01-30T07:40:21;23.33;;;13.30;;
44854;SDS011;30591;48.228;16.398;2023-01-30T07:42:56;25.30;;;13.47;;
44854;SDS011;30591;48.228;16.398;2023-01-30T07:45:25;23.70;;;13.47;;
44854;SDS011;30591;48.228;16.398;2023-01-30T07:47:57;24.30;;;13.10;;
44854;SDS011;30591;48.228;16.398;2023-01-30T07:50:24;25.47;;;14.30;;
44854;SDS011;30591;48.228;16.398;2023-01-30T07:52:51;26.10;;;13.87;;
44854;SDS011;30591;48.228;16.398;2023-01-30T07:55:18;27.13;;;13.77;;
44854;SDS011;30591;48.228;16.398;2023-01-30T07:57:46;21.73;;;12.17;;
44854;SDS011;30591;48.228;16.398;2023-01-30T08:00:13;24.40;;;12.67;;
44854;SDS011;30591;48.228;16.398;2023-01-30T08:02:42;25.03;;;13.50;;
44854;SDS011;30591;48.228;16.398;2023-01-30T08:05:09;25.97;;;12.60;;
44854;SDS011;30591;48.228;16.398;2023-01-30T08:07:37;23.60;;;12.23;;
44854;SDS011;30591;48.228;16.398;2023-01-30T08:10:05;23.30;;;12.83;;
44854;SDS011;30591;48.228;16.398;2023-01-30T08:12:36;25.47;;;13.90;;
44854;SDS011;30591;48.228;16.398;2023-01-30T08:15:03;24.43;;;12.80;;
44854;SDS011;30591;48.228;16.398;2023-01-30T08:17:31;23.93;;;12.57;;
44854;SDS011;30591;48.228;16.398;2023-01-30T08:19:59;24.37;;;13.33;;
44854;SDS011;30591;48.228;16.398;2023-01-30T08:22:27;23.73;;;12.07;;
44854;SDS011;30591;48.228;16.398;2023-01-30T08:24:54;22.00;;;12.00;;
44854;SDS011;30591;48.228;16.398;2023-01-30T08:27:22;27.00;;;13.37;;
44854;SDS011;30591;48.228;16.398;2023-01-30T08:29:49;25.57;;;12.53;;
44854;SDS011;30591;48.228;16.398;2023-01-30T08:32:16;23.17;;;12.60;;
44854;SDS011;30591;48.228;16.398;2023-01-30T08:34:43;22.80;;;12.80;;
44854;SDS011;30591;48.228;16.398;2023-01-30T08:37:11;24.33;;;12.47;;
44854;SDS011;30591;48.228;16.398;2023-01-30T08:39:38;25.60;;;12.53;;
44854;SDS011;30591;48.228;16.398;2023-01-30T08:42:05;24.67;;;12.67;;
44854;SDS011;30591;48.228;16.398;2023-01-30T08:44:33;24.30;;;12.07;;
44854;SDS011;30591;48.228;16.398;2023-01-30T08:47:00;21.40;;;11.07;;
44854;SDS011;30591;48.228;16.398;2023-01-30T08:49:27;21.43;;;11.23;;
44854;SDS011;30591;48.228;16.398;2023-01-30T08:51:55;20.67;;;11.63;;
44854;SDS011;30591;48.228;16.398;2023-01-30T08:54:22;22.97;;;12.00;;
44854;SDS011;30591;48.228;16.398;2023-01-30T08:56:49;23.07;;;12.10;;
44854;SDS011;30591;48.228;16.398;2023-01-30T08:59:16;20.63;;;11.80;;
44854;SDS011;30591;48.228;16.398;2023-01-30T09:01:44;17.43;;;10.27;;
44854;SDS011;30591;48.228;16.398;2023-01-30T09:04:11;16.53;;;9.93;;
44854;SDS011;30591;48.228;16.398;2023-01-30T09:06:38;21.53;;;11.17;;
44854;SDS011;30591;48.228;16.398;2023-01-30T09:09:06;19.80;;;11.03;;
44854;SDS011;30591;48.228;16.398;2023-01-30T09:11:33;20.93;;;10.07;;
44854;SDS011;30591;48.228;16.398;2023-01-30T09:14:00;18.77;;;10.17;;
44854;SDS011;30591;48.228;16.398;2023-01-30T09:16:27;19.83;;;11.10;;
44854;SDS011;30591;48.228;16.398;2023-01-30T09:18:55;17.90;;;10.53;;
44854;SDS011;30591;48.228;16.398;2023-01-30T09:21:22;19.03;;;10.73;;
44854;SDS011;30591;48.228;16.398;2023-01-30T09:23:50;20.97;;;10.47;;
44854;SDS011;30591;48.228;16.398;2023-01-30T09:26:17;17.67;;;9.90;;
44854;SDS011;30591;48.228;16.398;2023-01-30T09:28:44;16.17;;;9.40;;
44854;SDS011;30591;48.228;16.398;2023-01-30T09:31:11;15.80;;;9.27;;
44854;SDS011;30591;48.228;16.398;2023-01-30T09:33:39;17.47;;;9.27;;
44854;SDS011;30591;48.228;16.398;2023-01-30T09:36:07;18.77;;;10.13;;
44854;SDS011;30591;48.228;16.398;2023-01-30T09:38:34;16.13;;;9.80;;
44854;SDS011;30591;48.228;16.398;2023-01-30T09:43:58;15.53;;;10.00;;
44854;SDS011;30591;48.228;16.398;2023-01-30T09:54:48;16.97;;;8.73;;
44854;SDS011;30591;48.228;16.398;2023-01-30T09:57:20;15.90;;;8.67;;
44854;SDS011;30591;48.228;16.398;2023-01-30T10:00:11;18.43;;;9.20;;
44854;SDS011;30591;48.228;16.398;2023-01-30T10:02:49;15.50;;;8.60;;
44854;SDS011;30591;48.228;16.398;2023-01-30T10:08:19;16.50;;;9.23;;
44854;SDS011;30591;48.228;16.398;2023-01-30T10:11:08;14.50;;;8.13;;
44854;SDS011;30591;48.228;16.398;2023-01-30T10:17:04;14.00;;;7.67;;
44854;SDS011;30591;48.228;16.398;2023-01-30T10:19:54;18.13;;;7.97;;
44854;SDS011;30591;48.228;16.398;2023-01-30T10:22:48;13.53;;;8.13;;
44854;SDS011;30591;48.228;16.398;2023-01-30T10:28:24;13.13;;;7.20;;
44854;SDS011;30591;48.228;16.398;2023-01-30T10:31:03;13.60;;;8.37;;
44854;SDS011;30591;48.228;16.398;2023-01-30T10:33:55;14.90;;;8.50;;
44854;SDS011;30591;48.228;16.398;2023-01-30T10:36:30;15.97;;;8.13;;
44854;SDS011;30591;48.228;16.398;2023-01-30T10:40:11;12.93;;;7.27;;
44854;SDS011;30591;48.228;16.398;2023-01-30T10:45:11;14.40;;;7.30;;
44854;SDS011;30591;48.228;16.398;2023-01-30T10:53:47;13.33;;;6.80;;
44854;SDS011;30591;48.228;16.398;2023-01-30T10:56:21;12.17;;;6.57;;
44854;SDS011;30591;48.228;16.398;2023-01-30T11:01:42;12.60;;;6.87;;
44854;SDS011;30591;48.228;16.398;2023-01-30T11:04:35;12.07;;;6.60;;
44854;SDS011;30591;48.228;16.398;2023-01-30T11:07:12;10.93;;;7.27;;
44854;SDS011;30591;48.228;16.398;2023-01-30T11:09:46;13.20;;;6.37;;
44854;SDS011;30591;48.228;16.398;2023-01-30T11:12:15;11.83;;;6.10;;
44854;SDS011;30591;48.228;16.398;2023-01-30T11:15:00;10.60;;;6.27;;
44854;SDS011;30591;48.228;16.398;2023-01-30T11:17:39;11.03;;;6.73;;
44854;SDS011;30591;48.228;16.398;2023-01-30T11:20:15;12.90;;;6.10;;
44854;SDS011;30591;48.228;16.398;2023-01-30T11:22:49;9.67;;;6.20;;
44854;SDS011;30591;48.228;16.398;2023-01-30T11:25:30;8.37;;;5.73;;
44854;SDS011;30591;48.228;16.398;2023-01-30T11:28:12;8.47;;;6.33;;
44854;SDS011;30591;48.228;16.398;2023-01-30T11:30:42;9.23;;;6.23;;
44854;SDS011;30591;48.228;16.398;2023-01-30T11:33:16;8.70;;;6.33;;
44854;SDS011;30591;48.228;16.398;2023-01-30T11:35:52;8.43;;;6.53;;
44854;SDS011;30591;48.228;16.398;2023-01-30T11:38:26;8.80;;;6.37;;
44854;SDS011;30591;48.228;16.398;2023-01-30T11:43:38;9.87;;;5.53;;
44854;SDS011;30591;48.228;16.398;2023-01-30T11:46:10;12.03;;;6.77;;
44854;SDS011;30591;48.228;16.398;2023-01-30T11:48:48;10.33;;;6.30;;
44854;SDS011;30591;48.228;16.398;2023-01-30T11:51:42;15.03;;;7.13;;
44854;SDS011;30591;48.228;16.398;2023-01-30T11:54:13;11.50;;;6.57;;
44854;SDS011;30591;48.228;16.398;2023-01-30T11:56:46;10.10;;;5.80;;
44854;SDS011;30591;48.228;16.398;2023-01-30T12:01:45;11.13;;;6.63;;
44854;SDS011;30591;48.228;16.398;2023-01-30T12:04:12;11.40;;;6.10;;
44854;SDS011;30591;48.228;16.398;2023-01-30T12:06:41;10.13;;;6.10;;
44854;SDS011;30591;48.228;16.398;2023-01-30T12:09:27;14.00;;;6.70;;
44854;SDS011;30591;48.228;16.398;2023-01-30T12:11:55;8.33;;;5.40;;
44854;SDS011;30591;48.228;16.398;2023-01-30T12:17:11;10.57;;;5.93;;
44854;SDS011;30591;48.228;16.398;2023-01-30T12:23:11;10.33;;;5.67;;
44854;SDS011;30591;48.228;16.398;2023-01-30T12:28:49;10.57;;;6.43;;
44854;SDS011;30591;48.228;16.398;2023-01-30T12:31:45;8.60;;;6.03;;
44854;SDS011;30591;48.228;16.398;2023-01-30T12:34:16;11.07;;;6.50;;
44854;SDS011;30591;48.228;16.398;2023-01-30T12:36:44;10.73;;;6.60;;
44854;SDS011;30591;48.228;16.398;2023-01-30T12:44:50;9.20;;;6.10;;
44854;SDS011;30591;48.228;16.398;2023-01-30T12:47:43;10.80;;;5.93;;
44854;SDS011;30591;48.228;16.398;2023-01-30T12:50:37;9.07;;;5.87;;
44854;SDS011;30591;48.228;16.398;2023-01-30T12:53:44;12.27;;;6.07;;
44854;SDS011;30591;48.228;16.398;2023-01-30T12:59:00;8.47;;;5.07;;
44854;SDS011;30591;48.228;16.398;2023-01-30T13:01:45;9.23;;;5.30;;
44854;SDS011;30591;48.228;16.398;2023-01-30T13:13:17;7.63;;;4.70;;
44854;SDS011;30591;48.228;16.398;2023-01-30T13:18:39;7.00;;;4.30;;
44854;SDS011;30591;48.228;16.398;2023-01-30T13:27:14;8.10;;;4.17;;
44854;SDS011;30591;48.228;16.398;2023-01-30T13:29:47;8.77;;;4.33;;
44854;SDS011;30591;48.228;16.398;2023-01-30T13:35:14;6.13;;;4.30;;
44854;SDS011;30591;48.228;16.398;2023-01-30T13:37:45;5.90;;;4.07;;
44854;SDS011;30591;48.228;16.398;2023-01-30T13:40:18;7.07;;;3.90;;
44854;SDS011;30591;48.228;16.398;2023-01-30T13:42:51;8.23;;;4.63;;
44854;SDS011;30591;48.228;16.398;2023-01-30T13:45:25;7.00;;;4.07;;
44854;SDS011;30591;48.228;16.398;2023-01-30T13:53:29;7.20;;;4.27;;
44854;SDS011;30591;48.228;16.398;2023-01-30T14:07:12;9.30;;;5.40;;
44854;SDS011;30591;48.228;16.398;2023-01-30T14:12:46;9.03;;;5.23;;
44854;SDS011;30591;48.228;16.398;2023-01-30T14:20:24;8.13;;;4.77;;
44854;SDS011;30591;48.228;16.398;2023-01-30T14:38:38;9.43;;;5.87;;
44854;SDS011;30591;48.228;16.398;2023-01-30T14:41:15;9.57;;;6.10;;
44854;SDS011;30591;48.228;16.398;2023-01-30T14:56:35;9.37;;;5.23;;
44854;SDS011;30591;48.228;16.398;2023-01-30T15:07:22;9.83;;;5.47;;
44854;SDS011;30591;48.228;16.398;2023-01-30T15:10:02;7.93;;;5.23;;
44854;SDS011;30591;48.228;16.398;2023-01-30T15:32:20;7.87;;;4.70;;
44854;SDS011;30591;48.228;16.398;2023-01-30T15:34:57;8.80;;;5.30;;
44854;SDS011;30591;48.228;16.398;2023-01-30T15:51:10;8.23;;;5.50;;
44854;SDS011;30591;48.228;16.398;2023-01-30T15:53:43;9.80;;;6.47;;
44854;SDS011;30591;48.228;16.398;2023-01-30T15:56:18;8.60;;;6.27;;
44854;SDS011;30591;48.228;16.398;2023-01-30T15:58:49;9.97;;;6.33;;
44854;SDS011;30591;48.228;16.398;2023-01-30T16:01:18;8.20;;;5.47;;
44854;SDS011;30591;48.228;16.398;2023-01-30T16:03:48;8.00;;;5.70;;
44854;SDS011;30591;48.228;16.398;2023-01-30T16:06:27;9.37;;;6.33;;
44854;SDS011;30591;48.228;16.398;2023-01-30T16:09:00;10.93;;;6.60;;
44854;SDS011;30591;48.228;16.398;2023-01-30T16:11:39;9.80;;;6.30;;
44854;SDS011;30591;48.228;16.398;2023-01-30T16:14:12;9.93;;;6.57;;
44854;SDS011;30591;48.228;16.398;2023-01-30T16:19:25;8.57;;;6.63;;
44854;SDS011;30591;48.228;16.398;2023-01-30T16:22:01;9.97;;;6.80;;
44854;SDS011;30591;48.228;16.398;2023-01-30T16:24:42;8.83;;;6.00;;
44854;SDS011;30591;48.228;16.398;2023-01-30T16:27:16;8.77;;;6.67;;
44854;SDS011;30591;48.228;16.398;2023-01-30T16:29:59;10.10;;;6.80;;
44854;SDS011;30591;48.228;16.398;2023-01-30T16:32:34;11.17;;;7.17;;
44854;SDS011;30591;48.228;16.398;2023-01-30T16:35:13;10.80;;;7.30;;
44854;SDS011;30591;48.228;16.398;2023-01-30T16:37:54;9.37;;;6.40;;
44854;SDS011;30591;48.228;16.398;2023-01-30T16:40:24;11.17;;;7.43;;
44854;SDS011;30591;48.228;16.398;2023-01-30T16:42:57;10.93;;;7.03;;
44854;SDS011;30591;48.228;16.398;2023-01-30T16:48:19;8.90;;;6.73;;
44854;SDS011;30591;48.228;16.398;2023-01-30T16:53:27;12.37;;;7.47;;
44854;SDS011;30591;48.228;16.398;2023-01-30T16:56:07;11.03;;;7.57;;
44854;SDS011;30591;48.228;16.398;2023-01-30T16:58:40;10.70;;;7.33;;
44854;SDS011;30591;48.228;16.398;2023-01-30T17:01:12;11.43;;;7.13;;
44854;SDS011;30591;48.228;16.398;2023-01-30T17:03:40;11.60;;;7.07;;
44854;SDS011;30591;48.228;16.398;2023-01-30T17:06:17;12.00;;;7.03;;
44854;SDS011;30591;48.228;16.398;2023-01-30T17:08:50;10.10;;;7.00;;
44854;SDS011;30591;48.228;16.398;2023-01-30T17:11:32;10.27;;;6.43;;
44854;SDS011;30591;48.228;16.398;2023-01-30T17:17:03;9.67;;;6.00;;
44854;SDS011;30591;48.228;16.398;2023-01-30T17:19:33;11.03;;;6.40;;
44854;SDS011;30591;48.228;16.398;2023-01-30T17:22:02;9.53;;;6.57;;
44854;SDS011;30591;48.228;16.398;2023-01-30T17:24:33;9.97;;;6.57;;
44854;SDS011;30591;48.228;16.398;2023-01-30T17:27:02;8.77;;;6.17;;
44854;SDS011;30591;48.228;16.398;2023-01-30T17:29:30;8.47;;;6.30;;
44854;SDS011;30591;48.228;16.398;2023-01-30T17:32:12;7.63;;;5.77;;
44854;SDS011;30591;48.228;16.398;2023-01-30T17:34:41;8.73;;;5.93;;
44854;SDS011;30591;48.228;16.398;2023-01-30T17:37:10;8.27;;;5.70;;
44854;SDS011;30591;48.228;16.398;2023-01-30T17:39:45;7.90;;;5.57;;
44854;SDS011;30591;48.228;16.398;2023-01-30T17:42:14;8.37;;;5.43;;
44854;SDS011;30591;48.228;16.398;2023-01-30T17:44:48;7.57;;;5.27;;
44854;SDS011;30591;48.228;16.398;2023-01-30T17:47:15;8.70;;;5.90;;
44854;SDS011;30591;48.228;16.398;2023-01-30T17:49:43;7.70;;;5.53;;
44854;SDS011;30591;48.228;16.398;2023-01-30T17:52:10;8.07;;;5.33;;
44854;SDS011;30591;48.228;16.398;2023-01-30T17:54:39;7.77;;;5.30;;
44854;SDS011;30591;48.228;16.398;2023-01-30T17:57:06;6.87;;;5.37;;
44854;SDS011;30591;48.228;16.398;2023-01-30T17:59:37;8.23;;;5.80;;
44854;SDS011;30591;48.228;16.398;2023-01-30T18:02:05;8.80;;;6.27;;
44854;SDS011;30591;48.228;16.398;2023-01-30T18:04:35;9.60;;;6.10;;
44854;SDS011;30591;48.228;16.398;2023-01-30T18:07:03;9.07;;;6.07;;
44854;SDS011;30591;48.228;16.398;2023-01-30T18:09:35;8.63;;;5.80;;
44854;SDS011;30591;48.228;16.398;2023-01-30T18:12:03;8.27;;;5.57;;
44854;SDS011;30591;48.228;16.398;2023-01-30T18:14:31;9.67;;;6.10;;
44854;SDS011;30591;48.228;16.398;2023-01-30T18:16:58;8.47;;;5.90;;
44854;SDS011;30591;48.228;16.398;2023-01-30T18:19:27;9.00;;;5.97;;
44854;SDS011;30591;48.228;16.398;2023-01-30T18:21:57;9.37;;;5.77;;
44854;SDS011;30591;48.228;16.398;2023-01-30T18:24:24;9.00;;;5.33;;